createdAt,value
2019-02-08T00:01:53.713Z,8.83
2019-02-08T00:04:23.187Z,8.92
2019-02-08T00:06:52.672Z,8.72
2019-02-08T00:09:22.215Z,8.91
2019-02-08T00:11:51.989Z,9.13
2019-02-08T00:14:21.462Z,9.11
2019-02-08T00:16:50.963Z,8.89
2019-02-08T00:19:20.499Z,9.05
2019-02-08T00:21:49.978Z,9.01
2019-02-08T00:24:19.530Z,9.10
2019-02-08T00:26:49.289Z,8.93
2019-02-08T00:29:18.767Z,9.01
2019-02-08T00:31:48.264Z,9.07
2019-02-08T00:34:17.837Z,9.05
2019-02-08T00:36:47.327Z,9.12
2019-02-08T00:39:16.881Z,9.06
2019-02-08T00:41:46.740Z,9.11
2019-02-08T00:44:16.208Z,9.04
2019-02-08T00:46:45.706Z,9.09
2019-02-08T00:49:15.201Z,9.06
2019-02-08T00:51:44.692Z,9.13
2019-02-08T00:54:14.164Z,9.03
2019-02-08T00:56:43.651Z,8.98
2019-02-08T00:59:13.117Z,8.92
2019-02-08T01:01:42.752Z,8.94
2019-02-08T01:04:12.234Z,9.01
2019-02-08T01:06:41.808Z,8.96
2019-02-08T01:09:11.295Z,9.00
2019-02-08T01:11:40.855Z,9.10
2019-02-08T01:14:10.608Z,8.99
2019-02-08T01:16:40.163Z,9.00
2019-02-08T01:19:09.764Z,9.06
2019-02-08T01:21:39.319Z,9.05
2019-02-08T01:24:08.794Z,8.99
2019-02-08T01:26:38.285Z,9.02
2019-02-08T01:29:07.848Z,8.97
2019-02-08T01:31:37.359Z,8.93
2019-02-08T01:34:06.903Z,8.99
2019-02-08T01:36:37.369Z,9.03
2019-02-08T01:39:08.298Z,9.17
2019-02-08T01:41:37.853Z,9.17
2019-02-08T01:44:07.402Z,9.21
2019-02-08T01:46:36.893Z,9.21
2019-02-08T01:49:06.440Z,9.12
2019-02-08T01:51:35.927Z,9.22
2019-02-08T01:54:05.556Z,9.09
2019-02-08T01:56:35.038Z,9.07
2019-02-08T01:59:04.594Z,9.12
2019-02-08T02:01:34.140Z,9.06
2019-02-08T02:04:03.725Z,8.88
2019-02-08T02:06:33.212Z,8.93
2019-02-08T02:09:02.769Z,9.00
2019-02-08T02:11:33.224Z,8.94
2019-02-08T02:14:02.751Z,9.01
2019-02-08T02:16:32.307Z,9.00
2019-02-08T02:19:01.786Z,8.99
2019-02-08T02:21:31.277Z,9.05
2019-02-08T02:24:00.773Z,8.94
2019-02-08T02:26:30.281Z,8.98
2019-02-08T02:28:59.768Z,8.84
2019-02-08T02:31:29.270Z,9.03
2019-02-08T02:33:58.743Z,8.99
2019-02-08T02:36:28.223Z,9.07
2019-02-08T02:38:57.703Z,9.06
2019-02-08T02:41:27.199Z,9.12
2019-02-08T02:43:56.715Z,9.12
2019-02-08T02:46:26.161Z,8.98
2019-02-08T02:48:56.678Z,9.10
2019-02-08T02:51:26.166Z,8.90
2019-02-08T02:53:55.644Z,8.95
2019-02-08T02:56:25.145Z,8.97
2019-02-08T02:58:54.621Z,9.01
2019-02-08T03:01:24.094Z,9.14
2019-02-08T03:03:53.654Z,9.06
2019-02-08T03:06:23.354Z,9.10
2019-02-08T03:08:52.861Z,9.03
2019-02-08T03:11:22.349Z,9.07
2019-02-08T03:13:51.825Z,8.92
2019-02-08T03:16:21.301Z,9.00
2019-02-08T03:18:50.783Z,8.98
2019-02-08T03:21:20.376Z,9.02
2019-02-08T03:23:49.854Z,8.99
2019-02-08T03:26:19.324Z,8.80
2019-02-08T03:28:48.815Z,8.86
2019-02-08T03:31:18.354Z,8.91
2019-02-08T03:33:47.831Z,8.85
2019-02-08T03:36:17.316Z,8.96
2019-02-08T03:38:46.809Z,8.95
2019-02-08T03:41:16.296Z,8.89
2019-02-08T03:43:45.877Z,8.90
2019-02-08T03:46:15.378Z,8.90
2019-02-08T03:48:44.923Z,8.96
2019-02-08T03:51:15.389Z,8.98
2019-02-08T03:53:44.903Z,8.91
2019-02-08T03:56:14.379Z,8.86
2019-02-08T03:58:43.863Z,8.88
2019-02-08T04:01:14.068Z,8.51
2019-02-08T04:03:43.617Z,8.89
2019-02-08T04:06:13.080Z,8.87
2019-02-08T04:08:42.676Z,8.77
2019-02-08T04:11:12.205Z,8.72
2019-02-08T04:13:41.680Z,8.67
2019-02-08T04:16:11.157Z,8.83
2019-02-08T04:18:42.619Z,8.81
2019-02-08T04:21:13.234Z,8.87
2019-02-08T04:23:42.809Z,8.89
2019-02-08T04:26:12.497Z,8.81
2019-02-08T04:28:42.099Z,8.85
2019-02-08T04:31:11.636Z,8.98
2019-02-08T04:33:41.117Z,8.97
2019-02-08T04:36:10.726Z,8.94
2019-02-08T04:38:40.261Z,8.86
2019-02-08T04:41:09.762Z,8.88
2019-02-08T04:43:39.262Z,8.83
2019-02-08T04:46:08.747Z,8.85
2019-02-08T04:48:38.267Z,8.88
2019-02-08T04:51:07.866Z,8.84
2019-02-08T04:53:37.399Z,8.78
2019-02-08T04:56:06.908Z,8.77
2019-02-08T04:58:36.511Z,8.81
2019-02-08T05:01:06.078Z,8.71
2019-02-08T05:03:35.743Z,8.74
2019-02-08T05:06:05.309Z,8.69
2019-02-08T05:08:34.829Z,8.67
2019-02-08T05:11:04.302Z,8.62
2019-02-08T05:13:33.833Z,8.65
2019-02-08T05:16:03.309Z,8.57
2019-02-08T05:18:32.849Z,8.67
2019-02-08T05:21:02.349Z,8.71
2019-02-08T05:23:31.841Z,8.77
2019-02-08T05:26:01.325Z,8.76
2019-02-08T05:28:30.808Z,8.73
2019-02-08T05:31:00.299Z,8.75
2019-02-08T05:33:29.881Z,8.73
2019-02-08T05:35:59.360Z,8.71
2019-02-08T05:38:28.873Z,8.77
2019-02-08T05:40:58.378Z,8.87
2019-02-08T05:43:27.894Z,8.72
2019-02-08T05:45:57.382Z,8.72
2019-02-08T05:48:26.864Z,8.69
2019-02-08T05:50:56.340Z,8.68
2019-02-08T05:53:25.993Z,8.68
2019-02-08T05:55:55.475Z,8.64
2019-02-08T05:58:25.118Z,8.65
2019-02-08T06:00:58.608Z,8.64
2019-02-08T06:03:28.201Z,8.67
2019-02-08T06:05:57.836Z,8.62
2019-02-08T06:08:27.356Z,8.63
2019-02-08T06:10:56.831Z,8.61
2019-02-08T06:13:26.430Z,8.59
2019-02-08T06:15:55.920Z,8.72
2019-02-08T06:18:25.470Z,8.67
2019-02-08T06:20:55.026Z,8.64
2019-02-08T06:23:24.646Z,8.63
2019-02-08T06:25:54.147Z,8.59
2019-02-08T06:28:23.633Z,8.53
2019-02-08T06:30:53.126Z,8.62
2019-02-08T06:33:22.700Z,8.52
2019-02-08T06:35:52.299Z,8.52
2019-02-08T06:38:21.797Z,8.56
2019-02-08T06:40:51.344Z,8.55
2019-02-08T06:43:20.835Z,8.51
2019-02-08T06:45:50.408Z,8.52
2019-02-08T06:48:19.902Z,8.47
2019-02-08T06:50:49.426Z,8.58
2019-02-08T06:53:20.001Z,8.56
2019-02-08T06:55:53.797Z,8.60
2019-02-08T06:58:45.813Z,8.56
2019-02-08T07:01:40.360Z,8.57
2019-02-08T07:04:35.329Z,8.51
2019-02-08T07:07:19.853Z,8.50
2019-02-08T07:10:02.475Z,8.53
2019-02-08T07:12:50.124Z,8.55
2019-02-08T07:15:53.831Z,8.56
2019-02-08T07:18:43.685Z,8.54
2019-02-08T07:21:24.868Z,8.56
2019-02-08T07:24:12.445Z,8.53
2019-02-08T07:26:54.117Z,8.61
2019-02-08T07:29:39.836Z,8.66
2019-02-08T07:32:31.454Z,8.72
2019-02-08T07:35:18.337Z,8.69
2019-02-08T07:37:55.392Z,8.73
2019-02-08T07:40:44.341Z,8.62
2019-02-08T07:43:31.839Z,8.76
2019-02-08T07:46:15.017Z,8.71
2019-02-08T07:49:09.703Z,8.72
2019-02-08T07:52:04.622Z,8.83
2019-02-08T07:54:53.715Z,8.88
2019-02-08T07:57:41.436Z,8.84
2019-02-08T08:00:24.271Z,8.75
2019-02-08T08:03:08.255Z,8.88
2019-02-08T08:05:58.009Z,8.85
2019-02-08T08:08:45.532Z,8.78
2019-02-08T08:11:49.677Z,8.86
2019-02-08T08:14:37.308Z,8.81
2019-02-08T08:17:41.185Z,8.78
2019-02-08T08:20:33.359Z,8.72
2019-02-08T08:23:23.959Z,8.71
2019-02-08T08:26:25.905Z,8.48
2019-02-08T08:29:21.519Z,8.68
2019-02-08T08:32:03.135Z,8.76
2019-02-08T08:34:59.667Z,8.88
2019-02-08T08:38:10.539Z,9.01
2019-02-08T08:41:23.397Z,9.02
2019-02-08T08:44:43.575Z,8.99
2019-02-08T08:47:46.503Z,8.98
2019-02-08T08:50:47.204Z,9.04
2019-02-08T08:54:12.304Z,9.03
2019-02-08T08:57:18.256Z,9.09
2019-02-08T09:00:31.696Z,9.18
2019-02-08T09:03:38.169Z,9.19
2019-02-08T09:06:24.901Z,9.13
2019-02-08T09:09:27.052Z,9.24
2019-02-08T09:12:05.973Z,9.23
2019-02-08T09:15:14.381Z,9.20
2019-02-08T09:18:19.853Z,9.28
2019-02-08T09:21:09.612Z,9.37
2019-02-08T09:24:04.501Z,9.45
2019-02-08T09:27:08.446Z,9.40
2019-02-08T09:30:08.213Z,9.49
2019-02-08T09:33:27.197Z,9.49
2019-02-08T09:36:21.946Z,9.55
2019-02-08T09:39:29.827Z,9.54
2019-02-08T09:42:36.416Z,9.53
2019-02-08T09:45:39.250Z,9.65
2019-02-08T09:48:32.315Z,9.66
2019-02-08T09:51:56.084Z,9.43
2019-02-08T09:55:18.213Z,9.56
2019-02-08T09:58:19.193Z,9.53
2019-02-08T10:01:29.148Z,9.49
2019-02-08T10:04:45.308Z,9.67
2019-02-08T10:07:47.758Z,9.81
2019-02-08T10:10:48.762Z,9.93
2019-02-08T10:13:46.225Z,9.82
2019-02-08T10:16:46.407Z,10.06
2019-02-08T10:19:31.636Z,9.92
2019-02-08T10:22:20.065Z,9.99
2019-02-08T10:25:17.028Z,10.31
2019-02-08T10:28:23.035Z,10.53
2019-02-08T10:31:19.548Z,10.55
2019-02-08T10:34:25.367Z,10.53
2019-02-08T10:37:41.445Z,10.59
2019-02-08T10:40:47.951Z,10.68
2019-02-08T10:44:02.601Z,10.64
2019-02-08T10:47:13.549Z,10.23
2019-02-08T10:50:29.303Z,10.50
2019-02-08T10:53:38.323Z,10.60
2019-02-08T10:56:42.215Z,10.65
2019-02-08T10:59:53.031Z,10.60
2019-02-08T11:02:58.650Z,10.49
2019-02-08T11:06:09.455Z,10.57
2019-02-08T11:09:16.317Z,10.48
2019-02-08T11:12:38.519Z,10.50
2019-02-08T11:15:44.136Z,10.50
2019-02-08T11:18:57.355Z,10.39
2019-02-08T11:21:26.951Z,10.45
2019-02-08T11:23:56.415Z,10.56
2019-02-08T11:26:26.071Z,10.57
2019-02-08T11:28:55.571Z,10.57
2019-02-08T11:31:25.074Z,10.66
2019-02-08T11:33:54.584Z,10.62
2019-02-08T11:36:24.074Z,10.69
2019-02-08T11:38:53.620Z,10.61
2019-02-08T11:41:23.090Z,10.69
2019-02-08T11:43:52.631Z,10.81
2019-02-08T11:46:22.113Z,10.67
2019-02-08T11:48:51.608Z,10.75
2019-02-08T11:51:21.177Z,10.93
2019-02-08T11:53:50.657Z,10.93
2019-02-08T11:56:20.161Z,10.94
2019-02-08T11:58:49.651Z,10.90
2019-02-08T12:01:19.143Z,11.06
2019-02-08T12:03:48.702Z,10.96
2019-02-08T12:06:18.239Z,10.99
2019-02-08T12:08:47.738Z,11.01
2019-02-08T12:11:17.226Z,11.02
2019-02-08T12:13:46.713Z,10.98
2019-02-08T12:16:16.196Z,10.92
2019-02-08T12:18:45.709Z,11.08
2019-02-08T12:21:15.272Z,11.06
2019-02-08T12:23:44.762Z,11.08
2019-02-08T12:26:14.270Z,11.23
2019-02-08T12:28:43.769Z,11.18
2019-02-08T12:31:13.264Z,11.13
2019-02-08T12:33:42.760Z,11.11
2019-02-08T12:36:12.253Z,11.21
2019-02-08T12:38:41.737Z,11.28
2019-02-08T12:41:12.916Z,11.24
2019-02-08T12:43:42.503Z,11.24
2019-02-08T12:46:12.107Z,11.29
2019-02-08T12:48:41.674Z,11.31
2019-02-08T12:51:11.214Z,11.40
2019-02-08T12:53:40.694Z,11.31
2019-02-08T12:56:10.193Z,11.46
2019-02-08T12:58:39.686Z,11.49
2019-02-08T13:01:09.329Z,11.48
2019-02-08T13:03:38.806Z,11.34
2019-02-08T13:06:08.573Z,11.36
2019-02-08T13:08:38.075Z,11.33
2019-02-08T13:11:07.545Z,11.30
2019-02-08T13:13:38.096Z,11.43
2019-02-08T13:16:07.677Z,11.48
2019-02-08T13:18:37.981Z,11.42
2019-02-08T13:21:08.157Z,11.46
2019-02-08T13:23:37.654Z,11.44
2019-02-08T13:26:07.176Z,11.34
2019-02-08T13:28:36.682Z,11.32
2019-02-08T13:31:06.177Z,11.36
2019-02-08T13:33:35.666Z,11.28
2019-02-08T13:36:10.875Z,11.28
2019-02-08T13:38:40.368Z,11.33
2019-02-08T13:41:09.871Z,11.23
2019-02-08T13:43:39.341Z,11.20
2019-02-08T13:46:08.938Z,11.19
2019-02-08T13:48:38.447Z,11.14
2019-02-08T13:51:07.953Z,11.13
2019-02-08T13:53:37.462Z,11.01
2019-02-08T13:56:06.944Z,10.99
2019-02-08T13:58:36.441Z,11.12
2019-02-08T14:01:06.010Z,11.04
2019-02-08T14:03:35.513Z,11.03
2019-02-08T14:06:05.354Z,11.07
2019-02-08T14:08:34.858Z,10.97
2019-02-08T14:11:04.350Z,10.93
2019-02-08T14:13:40.456Z,10.84
2019-02-08T14:16:05.107Z,10.82
2019-02-08T14:18:34.594Z,10.88
2019-02-08T14:21:04.146Z,11.06
2019-02-08T14:23:33.628Z,11.06
2019-02-08T14:26:03.111Z,11.16
2019-02-08T14:28:32.605Z,11.13
2019-02-08T14:31:02.173Z,10.98
2019-02-08T14:33:31.670Z,11.00
2019-02-08T14:36:01.193Z,10.99
2019-02-08T14:38:30.707Z,10.99
2019-02-08T14:41:00.216Z,10.88
2019-02-08T14:43:29.738Z,10.85
2019-02-08T14:45:59.249Z,10.72
2019-02-08T14:48:28.726Z,10.76
2019-02-08T14:50:58.226Z,10.71
2019-02-08T14:53:28.371Z,10.70
2019-02-08T14:55:57.886Z,10.65
2019-02-08T14:58:27.440Z,10.69
2019-02-08T15:00:56.913Z,10.50
2019-02-08T15:03:26.408Z,10.49
2019-02-08T15:05:55.889Z,10.49
2019-02-08T15:08:25.376Z,10.43
2019-02-08T15:10:54.870Z,10.47
2019-02-08T15:13:24.401Z,10.49
2019-02-08T15:15:53.939Z,10.43
2019-02-08T15:18:23.467Z,10.23
2019-02-08T15:20:53.046Z,10.22
2019-02-08T15:23:22.590Z,10.32
2019-02-08T15:25:52.118Z,10.11
2019-02-08T15:28:21.599Z,10.15
2019-02-08T15:30:51.102Z,10.09
2019-02-08T15:33:20.602Z,10.14
2019-02-08T15:35:50.140Z,10.16
2019-02-08T15:38:19.804Z,10.13
2019-02-08T15:40:52.360Z,10.09
2019-02-08T15:43:23.530Z,10.11
2019-02-08T15:46:01.042Z,10.15
2019-02-08T15:48:30.541Z,10.11
2019-02-08T15:51:00.054Z,10.05
2019-02-08T15:53:29.566Z,10.15
2019-02-08T15:56:11.527Z,10.07
2019-02-08T15:58:41.101Z,10.01
2019-02-08T16:01:12.039Z,9.96
2019-02-08T16:03:42.593Z,10.01
2019-02-08T16:06:12.167Z,10.02
2019-02-08T16:08:41.788Z,10.04
2019-02-08T16:11:11.374Z,9.99
2019-02-08T16:13:41.869Z,10.01
2019-02-08T16:16:11.911Z,10.15
2019-02-08T16:18:41.481Z,10.23
2019-02-08T16:21:11.057Z,10.27
2019-02-08T16:23:40.538Z,10.43
2019-02-08T16:26:10.090Z,10.28
2019-02-08T16:28:39.564Z,10.40
2019-02-08T16:31:09.148Z,10.41
2019-02-08T16:33:38.634Z,10.30
2019-02-08T16:36:08.198Z,10.39
2019-02-08T16:38:37.693Z,10.42
2019-02-08T16:41:07.270Z,10.33
2019-02-08T16:43:36.781Z,10.25
2019-02-08T16:46:06.265Z,10.25
2019-02-08T16:48:35.763Z,10.06
2019-02-08T16:51:05.527Z,10.06
2019-02-08T16:53:35.034Z,10.12
2019-02-08T16:56:05.359Z,10.33
2019-02-08T16:58:34.860Z,10.29
2019-02-08T17:01:05.509Z,10.28
2019-02-08T17:03:35.017Z,10.18
2019-02-08T17:06:05.173Z,10.34
2019-02-08T17:08:34.705Z,10.49
2019-02-08T17:11:04.198Z,10.48
2019-02-08T17:13:34.631Z,10.46
2019-02-08T17:16:04.878Z,10.44
2019-02-08T17:18:34.438Z,10.33
2019-02-08T17:21:03.930Z,10.35
2019-02-08T17:23:33.409Z,10.39
2019-02-08T17:26:02.964Z,10.49
2019-02-08T17:28:32.446Z,10.39
2019-02-08T17:31:01.967Z,10.33
2019-02-08T17:33:31.430Z,10.39
2019-02-08T17:36:00.934Z,10.62
2019-02-08T17:38:30.441Z,10.63
2019-02-08T17:41:00.144Z,10.54
2019-02-08T17:43:29.649Z,10.31
2019-02-08T17:45:59.162Z,10.48
2019-02-08T17:48:28.661Z,10.55
2019-02-08T17:50:58.180Z,10.47
2019-02-08T17:53:27.699Z,10.48
2019-02-08T17:55:57.195Z,10.53
2019-02-08T17:58:26.698Z,10.53
2019-02-08T18:00:59.990Z,10.58
2019-02-08T18:03:30.443Z,10.53
2019-02-08T18:05:59.961Z,10.49
2019-02-08T18:08:29.458Z,10.55
2019-02-08T18:10:58.950Z,10.63
2019-02-08T18:13:29.325Z,10.66
2019-02-08T18:15:58.811Z,10.52
2019-02-08T18:18:28.295Z,10.66
2019-02-08T18:21:00.951Z,10.64
2019-02-08T18:23:30.433Z,10.55
2019-02-08T18:25:59.941Z,10.64
2019-02-08T18:28:30.424Z,10.52
2019-02-08T18:30:59.953Z,10.41
2019-02-08T18:33:29.481Z,10.46
2019-02-08T18:35:59.020Z,10.35
2019-02-08T18:38:28.522Z,10.52
2019-02-08T18:40:58.044Z,10.47
2019-02-08T18:43:27.563Z,10.29
2019-02-08T18:45:57.517Z,10.35
2019-02-08T18:48:27.016Z,10.38
2019-02-08T18:50:57.584Z,10.48
2019-02-08T18:53:27.138Z,10.45
2019-02-08T18:55:56.616Z,10.42
2019-02-08T18:58:26.122Z,10.45
2019-02-08T19:00:55.770Z,10.47
2019-02-08T19:03:25.257Z,10.42
2019-02-08T19:05:54.747Z,10.47
2019-02-08T19:08:24.304Z,10.39
2019-02-08T19:10:53.778Z,10.39
2019-02-08T19:13:23.256Z,10.32
2019-02-08T19:15:52.741Z,10.37
2019-02-08T19:18:22.240Z,10.53
2019-02-08T19:20:51.742Z,10.58
2019-02-08T19:23:21.243Z,10.50
2019-02-08T19:25:50.731Z,10.52
2019-02-08T19:28:26.277Z,10.48
2019-02-08T19:30:51.471Z,10.54
2019-02-08T19:33:20.973Z,10.45
2019-02-08T19:35:50.491Z,10.49
2019-02-08T19:38:20.067Z,10.45
2019-02-08T19:40:49.625Z,10.41
2019-02-08T19:43:19.134Z,10.41
2019-02-08T19:45:48.589Z,10.32
2019-02-08T19:48:18.085Z,10.30
2019-02-08T19:50:47.589Z,10.27
2019-02-08T19:53:17.074Z,10.34
2019-02-08T19:55:46.562Z,10.32
2019-02-08T19:58:16.055Z,10.23
2019-02-08T20:00:45.652Z,10.22
2019-02-08T20:03:15.150Z,10.22
2019-02-08T20:05:44.714Z,10.32
2019-02-08T20:08:14.694Z,10.36
2019-02-08T20:10:46.135Z,10.39
2019-02-08T20:13:15.678Z,10.33
2019-02-08T20:15:45.494Z,10.36
2019-02-08T20:18:15.284Z,10.44
2019-02-08T20:20:44.799Z,10.49
2019-02-08T20:23:14.301Z,10.37
2019-02-08T20:25:43.871Z,10.46
2019-02-08T20:28:13.439Z,10.47
2019-02-08T20:30:42.938Z,10.46
2019-02-08T20:33:12.512Z,10.54
2019-02-08T20:35:42.007Z,10.46
2019-02-08T20:38:11.572Z,10.49
2019-02-08T20:40:46.451Z,10.46
2019-02-08T20:43:15.948Z,10.48
2019-02-08T20:45:45.492Z,10.47
2019-02-08T20:48:18.355Z,10.45
2019-02-08T20:50:48.140Z,10.57
2019-02-08T20:53:17.715Z,10.58
2019-02-08T20:55:47.300Z,10.46
2019-02-08T20:58:16.892Z,10.48
2019-02-08T21:00:51.425Z,10.43
2019-02-08T21:03:21.797Z,10.45
2019-02-08T21:05:51.454Z,10.44
2019-02-08T21:08:21.461Z,10.49
2019-02-08T21:10:50.944Z,10.57
2019-02-08T21:13:20.517Z,10.59
2019-02-08T21:15:50.109Z,10.51
2019-02-08T21:18:19.575Z,10.51
2019-02-08T21:20:49.231Z,10.56
2019-02-08T21:23:18.741Z,10.41
2019-02-08T21:25:52.315Z,10.42
2019-02-08T21:28:20.445Z,10.36
2019-02-08T21:30:50.013Z,10.33
2019-02-08T21:33:19.574Z,10.32
2019-02-08T21:35:49.607Z,10.29
2019-02-08T21:38:19.255Z,10.25
2019-02-08T21:40:48.784Z,10.31
2019-02-08T21:43:18.234Z,10.33
2019-02-08T21:45:47.801Z,10.41
2019-02-08T21:48:17.279Z,10.39
2019-02-08T21:50:46.783Z,10.36
2019-02-08T21:53:16.264Z,10.37
2019-02-08T21:55:45.776Z,10.23
2019-02-08T21:58:15.269Z,10.20
2019-02-08T22:00:45.002Z,10.23
2019-02-08T22:03:14.487Z,10.19
2019-02-08T22:05:47.039Z,10.16
2019-02-08T22:08:16.748Z,10.14
2019-02-08T22:10:46.252Z,10.03
2019-02-08T22:13:15.775Z,10.07
2019-02-08T22:15:45.397Z,10.15
2019-02-08T22:18:14.892Z,10.14
2019-02-08T22:20:44.457Z,10.02
2019-02-08T22:23:13.946Z,10.06
2019-02-08T22:25:43.527Z,10.00
2019-02-08T22:28:13.130Z,10.01
2019-02-08T22:30:42.717Z,10.00
2019-02-08T22:33:12.224Z,10.05
2019-02-08T22:35:41.803Z,10.09
2019-02-08T22:38:11.401Z,10.10
2019-02-08T22:40:40.931Z,10.02
2019-02-08T22:43:10.452Z,9.99
2019-02-08T22:45:40.867Z,9.96
2019-02-08T22:48:10.496Z,9.97
2019-02-08T22:50:40.020Z,10.05
2019-02-08T22:53:09.904Z,10.05
2019-02-08T22:55:39.568Z,10.09
2019-02-08T22:58:09.314Z,10.13
2019-02-08T23:01:17.384Z,10.14
2019-02-08T23:03:46.881Z,10.10
2019-02-08T23:06:17.347Z,10.11
2019-02-08T23:08:47.738Z,10.12
2019-02-08T23:11:17.296Z,10.05
2019-02-08T23:13:46.763Z,10.07
2019-02-08T23:16:16.337Z,10.19
2019-02-08T23:18:45.868Z,10.14
2019-02-08T23:21:15.360Z,10.19
2019-02-08T23:23:44.918Z,10.17
2019-02-08T23:26:14.416Z,10.23
2019-02-08T23:28:43.975Z,10.24
2019-02-08T23:31:13.738Z,10.19
2019-02-08T23:33:43.313Z,10.09
2019-02-08T23:36:12.884Z,10.13
2019-02-08T23:38:42.427Z,10.18
2019-02-08T23:41:11.915Z,10.32
2019-02-08T23:43:41.403Z,10.39
2019-02-08T23:46:10.949Z,10.29
2019-02-08T23:48:40.413Z,10.18
2019-02-08T23:51:09.889Z,10.18
2019-02-08T23:53:39.361Z,10.20
2019-02-08T23:56:08.838Z,10.18
2019-02-08T23:58:38.339Z,10.30
